Terminal Aerodrome Forecast
Issued by NWS Caribou, ME

Home | Current Version | Previous Version | Text Only | Print | Product List | Glossary On
Versions: 1 2 3 4 5 6 7 8 9 10 11 12 13 14 15 16 17 18
000
FTUS41 KCAR 180500 RRA
TAFCAR
TAF
KCAR 180559Z 1806/1906 18004KT P6SM OVC070
     FM181000 20005KT P6SM BKN025
     FM181100 27007KT P6SM BKN009
     FM181330 29008KT P6SM BKN015
     FM181730 30010KT P6SM BKN040=

USA.gov is the U.S. government's official web portal to all federal, state and local government web resources and services.